sensor_id;sensor_type;location;lat;lon;timestamp;pressure;altitude;pressure_sealevel;temperature;humidity
75895;BME280;64573;50.328;15.014;2023-07-31T00:01:29;98783.06;;;13.80;100.00
75895;BME280;64573;50.328;15.014;2023-07-31T00:03:55;98780.56;;;13.79;100.00
75895;BME280;64573;50.328;15.014;2023-07-31T00:06:20;98771.66;;;13.78;100.00
75895;BME280;64573;50.328;15.014;2023-07-31T00:08:45;98771.66;;;13.78;100.00
75895;BME280;64573;50.328;15.014;2023-07-31T00:11:11;98771.66;;;13.72;100.00
75895;BME280;64573;50.328;15.014;2023-07-31T00:13:36;98773.75;;;13.70;100.00
75895;BME280;64573;50.328;15.014;2023-07-31T00:16:01;98776.63;;;13.68;100.00
75895;BME280;64573;50.328;15.014;2023-07-31T00:18:27;98779.72;;;13.65;100.00
75895;BME280;64573;50.328;15.014;2023-07-31T00:20:52;98776.00;;;13.60;100.00
75895;BME280;64573;50.328;15.014;2023-07-31T00:23:17;98768.34;;;13.57;100.00
75895;BME280;64573;50.328;15.014;2023-07-31T00:25:43;98762.72;;;13.51;100.00
75895;BME280;64573;50.328;15.014;2023-07-31T00:28:08;98762.72;;;13.51;100.00
75895;BME280;64573;50.328;15.014;2023-07-31T00:30:33;98764.38;;;13.46;100.00
75895;BME280;64573;50.328;15.014;2023-07-31T00:32:59;98771.41;;;13.47;100.00
75895;BME280;64573;50.328;15.014;2023-07-31T00:35:24;98776.59;;;13.42;100.00
75895;BME280;64573;50.328;15.014;2023-07-31T00:37:49;98773.06;;;13.41;100.00
75895;BME280;64573;50.328;15.014;2023-07-31T00:40:15;98773.88;;;13.35;100.00
75895;BME280;64573;50.328;15.014;2023-07-31T00:42:40;98770.75;;;13.32;100.00
75895;BME280;64573;50.328;15.014;2023-07-31T00:45:06;98767.00;;;13.19;100.00
75895;BME280;64573;50.328;15.014;2023-07-31T00:47:31;98767.63;;;13.21;100.00
75895;BME280;64573;50.328;15.014;2023-07-31T00:49:57;98771.09;;;13.15;100.00
75895;BME280;64573;50.328;15.014;2023-07-31T00:52:22;98761.78;;;13.11;100.00
75895;BME280;64573;50.328;15.014;2023-07-31T00:54:49;98765.50;;;13.10;100.00
75895;BME280;64573;50.328;15.014;2023-07-31T00:57:15;98766.75;;;13.14;100.00
75895;BME280;64573;50.328;15.014;2023-07-31T00:59:40;98776.06;;;13.05;100.00
75895;BME280;64573;50.328;15.014;2023-07-31T01:02:06;98773.56;;;13.04;100.00
75895;BME280;64573;50.328;15.014;2023-07-31T01:04:31;98776.06;;;13.05;100.00
75895;BME280;64573;50.328;15.014;2023-07-31T01:07:31;98773.97;;;13.01;100.00
75895;BME280;64573;50.328;15.014;2023-07-31T01:10:04;98770.41;;;12.93;100.00
75895;BME280;64573;50.328;15.014;2023-07-31T01:12:34;98768.94;;;12.84;100.00
75895;BME280;64573;50.328;15.014;2023-07-31T01:17:29;98768.75;;;12.92;100.00
75895;BME280;64573;50.328;15.014;2023-07-31T01:19:55;98769.16;;;12.89;100.00
75895;BME280;64573;50.328;15.014;2023-07-31T01:31:08;98748.28;;;12.50;100.00
75895;BME280;64573;50.328;15.014;2023-07-31T01:33:35;98753.41;;;12.45;100.00
75895;BME280;64573;50.328;15.014;2023-07-31T01:36:01;98745.97;;;12.40;100.00
75895;BME280;64573;50.328;15.014;2023-07-31T01:38:27;98739.09;;;12.38;100.00
75895;BME280;64573;50.328;15.014;2023-07-31T01:40:53;98743.84;;;12.36;100.00
75895;BME280;64573;50.328;15.014;2023-07-31T01:43:19;98743.03;;;12.35;100.00
75895;BME280;64573;50.328;15.014;2023-07-31T01:45:45;98743.22;;;12.34;100.00
75895;BME280;64573;50.328;15.014;2023-07-31T01:48:10;98746.75;;;12.34;100.00
75895;BME280;64573;50.328;15.014;2023-07-31T01:50:35;98743.84;;;12.36;100.00
75895;BME280;64573;50.328;15.014;2023-07-31T01:53:01;98733.25;;;12.28;100.00
75895;BME280;64573;50.328;15.014;2023-07-31T01:55:26;98739.25;;;12.30;100.00
75895;BME280;64573;50.328;15.014;2023-07-31T01:57:51;98742.78;;;12.30;100.00
75895;BME280;64573;50.328;15.014;2023-07-31T02:00:17;98738.41;;;12.23;100.00
75895;BME280;64573;50.328;15.014;2023-07-31T02:02:43;98738.81;;;12.20;100.00
75895;BME280;64573;50.328;15.014;2023-07-31T02:05:08;98740.25;;;12.22;100.00
75895;BME280;64573;50.328;15.014;2023-07-31T02:07:34;98736.81;;;12.35;100.00
75895;BME280;64573;50.328;15.014;2023-07-31T02:09:59;98733.56;;;12.39;100.00
75895;BME280;64573;50.328;15.014;2023-07-31T02:12:24;98731.47;;;12.41;100.00
75895;BME280;64573;50.328;15.014;2023-07-31T02:14:50;98738.72;;;12.41;100.00
75895;BME280;64573;50.328;15.014;2023-07-31T02:17:15;98732.72;;;12.39;100.00
75895;BME280;64573;50.328;15.014;2023-07-31T02:19:40;98742.19;;;12.35;100.00
75895;BME280;64573;50.328;15.014;2023-07-31T02:22:06;98739.22;;;12.23;100.00
75895;BME280;64573;50.328;15.014;2023-07-31T02:24:31;98740.09;;;12.30;100.00
75895;BME280;64573;50.328;15.014;2023-07-31T02:26:57;98741.16;;;12.36;100.00
75895;BME280;64573;50.328;15.014;2023-07-31T02:29:22;98745.09;;;12.33;100.00
75895;BME280;64573;50.328;15.014;2023-07-31T02:31:47;98745.47;;;12.30;100.00
75895;BME280;64573;50.328;15.014;2023-07-31T02:34:13;98738.22;;;12.31;100.00
75895;BME280;64573;50.328;15.014;2023-07-31T02:36:38;98734.13;;;12.35;100.00
75895;BME280;64573;50.328;15.014;2023-07-31T02:39:03;98749.69;;;12.39;100.00
75895;BME280;64573;50.328;15.014;2023-07-31T02:41:30;98737.28;;;12.38;100.00
75895;BME280;64573;50.328;15.014;2023-07-31T02:43:55;98733.94;;;12.36;100.00
75895;BME280;64573;50.328;15.014;2023-07-31T02:46:20;98730.19;;;12.37;100.00
75895;BME280;64573;50.328;15.014;2023-07-31T02:48:49;98732.72;;;12.39;100.00
75895;BME280;64573;50.328;15.014;2023-07-31T02:51:14;98731.03;;;12.31;100.00
75895;BME280;64573;50.328;15.014;2023-07-31T02:53:40;98735.59;;;12.37;100.00
75895;BME280;64573;50.328;15.014;2023-07-31T02:56:05;98728.16;;;12.39;100.00
75895;BME280;64573;50.328;15.014;2023-07-31T02:58:30;98726.06;;;12.35;100.00
75895;BME280;64573;50.328;15.014;2023-07-31T03:00:58;98724.44;;;12.40;100.00
75895;BME280;64573;50.328;15.014;2023-07-31T03:03:23;98731.47;;;12.41;100.00
75895;BME280;64573;50.328;15.014;2023-07-31T03:05:48;98727.09;;;12.34;100.00
75895;BME280;64573;50.328;15.014;2023-07-31T03:08:14;98734.53;;;12.32;100.00
75895;BME280;64573;50.328;15.014;2023-07-31T03:10:40;98726.28;;;12.33;100.00
75895;BME280;64573;50.328;15.014;2023-07-31T03:13:06;98728.75;;;12.35;100.00
75895;BME280;64573;50.328;15.014;2023-07-31T03:15:31;98717.78;;;12.36;100.00
75895;BME280;64573;50.328;15.014;2023-07-31T03:17:56;98717.78;;;12.36;100.00
75895;BME280;64573;50.328;15.014;2023-07-31T03:20:22;98725.81;;;12.30;100.00
75895;BME280;64573;50.328;15.014;2023-07-31T03:22:47;98721.44;;;12.22;100.00
75895;BME280;64573;50.328;15.014;2023-07-31T03:25:12;98718.13;;;12.20;100.00
75895;BME280;64573;50.328;15.014;2023-07-31T03:27:39;98723.28;;;12.22;100.00
75895;BME280;64573;50.328;15.014;2023-07-31T03:30:05;98729.72;;;12.21;100.00
75895;BME280;64573;50.328;15.014;2023-07-31T03:32:30;98726.22;;;12.27;100.00
75895;BME280;64573;50.328;15.014;2023-07-31T03:34:56;98720.84;;;12.27;100.00
75895;BME280;64573;50.328;15.014;2023-07-31T03:37:21;98723.97;;;12.30;100.00
75895;BME280;64573;50.328;15.014;2023-07-31T03:39:46;98723.59;;;12.33;100.00
75895;BME280;64573;50.328;15.014;2023-07-31T03:42:12;98723.16;;;12.36;100.00
75895;BME280;64573;50.328;15.014;2023-07-31T03:44:37;98722.38;;;12.42;100.00
75895;BME280;64573;50.328;15.014;2023-07-31T03:47:02;98729.41;;;12.43;100.00
75895;BME280;64573;50.328;15.014;2023-07-31T03:49:28;98726.13;;;12.48;100.00
75895;BME280;64573;50.328;15.014;2023-07-31T03:51:53;98739.38;;;12.50;100.00
75895;BME280;64573;50.328;15.014;2023-07-31T03:54:19;98735.66;;;12.51;100.00
75895;BME280;64573;50.328;15.014;2023-07-31T03:56:44;98736.94;;;12.55;100.00
75895;BME280;64573;50.328;15.014;2023-07-31T03:59:09;98739.22;;;12.58;100.00
75895;BME280;64573;50.328;15.014;2023-07-31T04:01:35;98731.75;;;12.60;100.00
75895;BME280;64573;50.328;15.014;2023-07-31T04:04:00;98731.75;;;12.53;100.00
75895;BME280;64573;50.328;15.014;2023-07-31T04:06:25;98728.03;;;12.54;100.00
75895;BME280;64573;50.328;15.014;2023-07-31T04:08:51;98728.88;;;12.55;100.00
75895;BME280;64573;50.328;15.014;2023-07-31T04:11:16;98732.59;;;12.54;100.00
75895;BME280;64573;50.328;15.014;2023-07-31T04:13:42;98734.66;;;12.58;100.00
75895;BME280;64573;50.328;15.014;2023-07-31T04:16:07;98732.63;;;12.60;100.00
75895;BME280;64573;50.328;15.014;2023-07-31T04:18:32;98736.97;;;12.61;100.00
75895;BME280;64573;50.328;15.014;2023-07-31T04:20:58;98738.84;;;12.67;100.00
75895;BME280;64573;50.328;15.014;2023-07-31T04:23:24;98743.84;;;12.77;100.00
75895;BME280;64573;50.328;15.014;2023-07-31T04:25:50;98743.88;;;12.84;100.00
75895;BME280;64573;50.328;15.014;2023-07-31T04:28:15;98739.94;;;12.86;100.00
75895;BME280;64573;50.328;15.014;2023-07-31T04:30:41;98735.41;;;12.93;100.00
75895;BME280;64573;50.328;15.014;2023-07-31T04:33:06;98740.03;;;13.13;100.00
75895;BME280;64573;50.328;15.014;2023-07-31T04:35:31;98736.78;;;13.24;100.00
75895;BME280;64573;50.328;15.014;2023-07-31T04:37:57;98728.31;;;13.40;100.00
75895;BME280;64573;50.328;15.014;2023-07-31T04:40:22;98739.31;;;13.59;100.00
75895;BME280;64573;50.328;15.014;2023-07-31T04:42:47;98734.16;;;13.77;100.00
75895;BME280;64573;50.328;15.014;2023-07-31T04:45:13;98730.19;;;13.93;100.00
75895;BME280;64573;50.328;15.014;2023-07-31T04:47:39;98730.41;;;13.98;100.00
75895;BME280;64573;50.328;15.014;2023-07-31T04:50:05;98723.09;;;14.05;100.00
75895;BME280;64573;50.328;15.014;2023-07-31T04:52:30;98729.31;;;14.12;100.00
75895;BME280;64573;50.328;15.014;2023-07-31T04:54:55;98717.72;;;14.05;100.00
75895;BME280;64573;50.328;15.014;2023-07-31T04:57:21;98722.28;;;14.04;100.00
75895;BME280;64573;50.328;15.014;2023-07-31T04:59:46;98725.63;;;14.00;100.00
75895;BME280;64573;50.328;15.014;2023-07-31T05:02:12;98717.13;;;13.90;100.00
75895;BME280;64573;50.328;15.014;2023-07-31T05:04:37;98718.78;;;13.91;100.00
75895;BME280;64573;50.328;15.014;2023-07-31T05:07:03;98720.41;;;14.12;100.00
75895;BME280;64573;50.328;15.014;2023-07-31T05:09:28;98718.94;;;14.29;100.00
75895;BME280;64573;50.328;15.014;2023-07-31T05:11:54;98718.09;;;14.35;100.00
75895;BME280;64573;50.328;15.014;2023-07-31T05:14:19;98715.75;;;14.45;100.00
75895;BME280;64573;50.328;15.014;2023-07-31T05:16:45;98714.50;;;14.54;100.00
75895;BME280;64573;50.328;15.014;2023-07-31T05:19:10;98717.84;;;14.56;100.00
75895;BME280;64573;50.328;15.014;2023-07-31T05:21:36;98712.44;;;14.63;100.00
75895;BME280;64573;50.328;15.014;2023-07-31T05:24:01;98721.75;;;14.67;100.00
75895;BME280;64573;50.328;15.014;2023-07-31T05:26:27;98718.53;;;14.83;100.00
75895;BME280;64573;50.328;15.014;2023-07-31T05:28:52;98717.09;;;14.87;100.00
75895;BME280;64573;50.328;15.014;2023-07-31T05:31:17;98722.88;;;14.91;100.00
75895;BME280;64573;50.328;15.014;2023-07-31T05:33:43;98726.59;;;14.97;100.00
75895;BME280;64573;50.328;15.014;2023-07-31T05:36:08;98711.00;;;14.99;100.00
75895;BME280;64573;50.328;15.014;2023-07-31T05:38:34;98712.22;;;15.03;100.00
75895;BME280;64573;50.328;15.014;2023-07-31T05:40:59;98709.03;;;15.12;100.00
75895;BME280;64573;50.328;15.014;2023-07-31T05:43:25;98711.63;;;15.32;100.00
75895;BME280;64573;50.328;15.014;2023-07-31T05:45:51;98716.16;;;15.38;100.00
75895;BME280;64573;50.328;15.014;2023-07-31T05:48:16;98726.22;;;15.56;100.00
75895;BME280;64573;50.328;15.014;2023-07-31T05:50:43;98717.56;;;15.79;100.00
75895;BME280;64573;50.328;15.014;2023-07-31T05:53:08;98719.09;;;15.93;100.00
75895;BME280;64573;50.328;15.014;2023-07-31T05:55:35;98720.47;;;16.03;100.00
75895;BME280;64573;50.328;15.014;2023-07-31T05:58:00;98717.63;;;16.16;100.00
75895;BME280;64573;50.328;15.014;2023-07-31T06:00:26;98720.34;;;16.52;100.00
75895;BME280;64573;50.328;15.014;2023-07-31T06:02:52;98704.94;;;16.71;100.00
75895;BME280;64573;50.328;15.014;2023-07-31T06:05:18;98710.50;;;16.76;100.00
75895;BME280;64573;50.328;15.014;2023-07-31T06:07:43;98704.63;;;16.79;100.00
75895;BME280;64573;50.328;15.014;2023-07-31T06:10:08;98701.75;;;16.93;100.00
75895;BME280;64573;50.328;15.014;2023-07-31T06:12:35;98706.09;;;16.94;100.00
75895;BME280;64573;50.328;15.014;2023-07-31T06:15:01;98697.03;;;17.18;100.00
75895;BME280;64573;50.328;15.014;2023-07-31T06:17:27;98693.88;;;17.86;100.00
75895;BME280;64573;50.328;15.014;2023-07-31T06:19:52;98687.03;;;17.72;100.00
75895;BME280;64573;50.328;15.014;2023-07-31T06:22:18;98689.72;;;18.31;99.66
75895;BME280;64573;50.328;15.014;2023-07-31T06:24:43;98676.78;;;19.30;92.03
75895;BME280;64573;50.328;15.014;2023-07-31T06:27:10;98673.09;;;20.03;85.04
75895;BME280;64573;50.328;15.014;2023-07-31T06:29:35;98670.22;;;20.71;79.93
75895;BME280;64573;50.328;15.014;2023-07-31T06:32:00;98668.06;;;20.95;75.99
75895;BME280;64573;50.328;15.014;2023-07-31T06:34:26;98664.81;;;20.98;72.91
75895;BME280;64573;50.328;15.014;2023-07-31T06:36:51;98669.59;;;21.71;71.36
75895;BME280;64573;50.328;15.014;2023-07-31T06:39:16;98660.78;;;21.96;66.25
75895;BME280;64573;50.328;15.014;2023-07-31T06:41:43;98666.16;;;22.18;66.94
75895;BME280;64573;50.328;15.014;2023-07-31T06:44:09;98665.00;;;21.77;67.18
75895;BME280;64573;50.328;15.014;2023-07-31T06:46:34;98661.63;;;22.39;67.04
75895;BME280;64573;50.328;15.014;2023-07-31T06:49:00;98660.66;;;22.13;69.98
75895;BME280;64573;50.328;15.014;2023-07-31T06:51:25;98667.03;;;21.28;72.92
75895;BME280;64573;50.328;15.014;2023-07-31T06:53:50;98660.00;;;20.83;70.55
75895;BME280;64573;50.328;15.014;2023-07-31T06:56:16;98658.88;;;20.18;72.51
75895;BME280;64573;50.328;15.014;2023-07-31T06:58:41;98661.06;;;20.38;72.57
75895;BME280;64573;50.328;15.014;2023-07-31T07:01:07;98654.81;;;20.37;71.68
75895;BME280;64573;50.328;15.014;2023-07-31T07:03:32;98658.69;;;19.69;73.89
75895;BME280;64573;50.328;15.014;2023-07-31T07:05:58;98656.63;;;19.93;75.97
75895;BME280;64573;50.328;15.014;2023-07-31T07:08:24;98661.22;;;20.09;76.27
75895;BME280;64573;50.328;15.014;2023-07-31T07:10:50;98658.06;;;19.79;76.67
75895;BME280;64573;50.328;15.014;2023-07-31T07:13:15;98658.88;;;19.63;75.01
75895;BME280;64573;50.328;15.014;2023-07-31T07:15:41;98658.25;;;19.27;78.74
75895;BME280;64573;50.328;15.014;2023-07-31T07:18:06;98661.41;;;19.69;79.05
75895;BME280;64573;50.328;15.014;2023-07-31T07:20:32;98656.72;;;20.20;76.12
75895;BME280;64573;50.328;15.014;2023-07-31T07:22:57;98656.06;;;20.30;71.61
75895;BME280;64573;50.328;15.014;2023-07-31T07:25:23;98660.88;;;20.06;77.00
75895;BME280;64573;50.328;15.014;2023-07-31T07:27:48;98662.56;;;20.07;71.63
75895;BME280;64573;50.328;15.014;2023-07-31T07:30:14;98666.28;;;19.67;72.21
75895;BME280;64573;50.328;15.014;2023-07-31T07:32:39;98655.91;;;19.81;68.86
75895;BME280;64573;50.328;15.014;2023-07-31T07:35:05;98669.66;;;19.74;70.58
75895;BME280;64573;50.328;15.014;2023-07-31T07:37:31;98664.38;;;19.34;74.15
75895;BME280;64573;50.328;15.014;2023-07-31T07:39:56;98660.19;;;19.77;73.83
75895;BME280;64573;50.328;15.014;2023-07-31T07:42:22;98662.22;;;20.03;73.55
75895;BME280;64573;50.328;15.014;2023-07-31T07:44:48;98671.19;;;19.37;74.31
75895;BME280;64573;50.328;15.014;2023-07-31T07:47:13;98671.13;;;19.48;77.98
75895;BME280;64573;50.328;15.014;2023-07-31T07:49:38;98671.38;;;18.61;78.43
75895;BME280;64573;50.328;15.014;2023-07-31T07:52:04;98665.09;;;18.84;78.83
75895;BME280;64573;50.328;15.014;2023-07-31T07:54:30;98662.66;;;18.99;79.88
75895;BME280;64573;50.328;15.014;2023-07-31T07:56:56;98657.09;;;19.40;73.52
75895;BME280;64573;50.328;15.014;2023-07-31T07:59:21;98654.63;;;19.55;75.31
75895;BME280;64573;50.328;15.014;2023-07-31T08:01:47;98655.19;;;19.40;78.36
75895;BME280;64573;50.328;15.014;2023-07-31T08:04:12;98660.63;;;19.40;79.33
75895;BME280;64573;50.328;15.014;2023-07-31T08:06:37;98659.94;;;18.99;78.67
75895;BME280;64573;50.328;15.014;2023-07-31T08:09:03;98666.63;;;19.25;79.00
75895;BME280;64573;50.328;15.014;2023-07-31T08:11:31;98671.28;;;19.42;76.89
75895;BME280;64573;50.328;15.014;2023-07-31T08:13:57;98657.75;;;19.47;77.34
75895;BME280;64573;50.328;15.014;2023-07-31T08:16:22;98653.84;;;19.71;76.42
75895;BME280;64573;50.328;15.014;2023-07-31T08:18:48;98664.06;;;19.81;74.43
75895;BME280;64573;50.328;15.014;2023-07-31T08:21:13;98663.63;;;19.89;73.83
75895;BME280;64573;50.328;15.014;2023-07-31T08:23:39;98661.84;;;19.61;73.44
75895;BME280;64573;50.328;15.014;2023-07-31T08:26:04;98672.66;;;19.73;74.18
75895;BME280;64573;50.328;15.014;2023-07-31T08:28:30;98675.47;;;20.17;73.04
75895;BME280;64573;50.328;15.014;2023-07-31T08:30:55;98669.47;;;20.15;72.15
75895;BME280;64573;50.328;15.014;2023-07-31T08:33:20;98674.03;;;20.70;70.91
75895;BME280;64573;50.328;15.014;2023-07-31T08:35:46;98673.16;;;20.86;68.45
75895;BME280;64573;50.328;15.014;2023-07-31T08:38:12;98686.63;;;21.25;66.62
75895;BME280;64573;50.328;15.014;2023-07-31T08:40:37;98685.72;;;21.41;67.48
75895;BME280;64573;50.328;15.014;2023-07-31T08:43:03;98678.94;;;21.21;66.88
75895;BME280;64573;50.328;15.014;2023-07-31T08:45:29;98670.16;;;20.87;66.65
75895;BME280;64573;50.328;15.014;2023-07-31T08:47:55;98669.38;;;20.70;64.18
75895;BME280;64573;50.328;15.014;2023-07-31T08:50:21;98672.22;;;20.36;66.29
75895;BME280;64573;50.328;15.014;2023-07-31T08:52:48;98679.16;;;20.27;70.17
75895;BME280;64573;50.328;15.014;2023-07-31T08:55:14;98674.16;;;20.58;68.33
75895;BME280;64573;50.328;15.014;2023-07-31T08:57:41;98685.75;;;20.70;69.88
75895;BME280;64573;50.328;15.014;2023-07-31T09:00:08;98683.97;;;20.59;67.67
75895;BME280;64573;50.328;15.014;2023-07-31T09:02:45;98675.19;;;20.35;68.79
75895;BME280;64573;50.328;15.014;2023-07-31T09:05:12;98673.38;;;20.84;66.62
75895;BME280;64573;50.328;15.014;2023-07-31T09:07:39;98675.41;;;20.94;65.64
75895;BME280;64573;50.328;15.014;2023-07-31T09:10:05;98672.50;;;20.57;65.32
75895;BME280;64573;50.328;15.014;2023-07-31T09:12:31;98673.56;;;20.56;66.80
75895;BME280;64573;50.328;15.014;2023-07-31T09:14:58;98669.91;;;20.89;68.49
75895;BME280;64573;50.328;15.014;2023-07-31T09:17:34;98666.44;;;20.72;68.90
75895;BME280;64573;50.328;15.014;2023-07-31T09:20:21;98662.19;;;21.08;65.70
75895;BME280;64573;50.328;15.014;2023-07-31T09:22:48;98655.38;;;20.83;63.43
75895;BME280;64573;50.328;15.014;2023-07-31T09:25:17;98658.09;;;20.83;63.51
75895;BME280;64573;50.328;15.014;2023-07-31T09:28:03;98656.25;;;20.89;67.32
75895;BME280;64573;50.328;15.014;2023-07-31T09:30:44;98659.63;;;20.74;66.34
75895;BME280;64573;50.328;15.014;2023-07-31T09:33:10;98658.69;;;20.03;66.93
75895;BME280;64573;50.328;15.014;2023-07-31T09:35:35;98654.50;;;20.78;67.15
75895;BME280;64573;50.328;15.014;2023-07-31T09:38:05;98641.91;;;20.72;62.98
75895;BME280;64573;50.328;15.014;2023-07-31T09:40:35;98650.69;;;20.57;66.16
75895;BME280;64573;50.328;15.014;2023-07-31T09:43:06;98649.81;;;21.27;65.62
75895;BME280;64573;50.328;15.014;2023-07-31T09:45:45;98641.19;;;21.35;61.27
75895;BME280;64573;50.328;15.014;2023-07-31T09:48:17;98629.22;;;22.73;58.75
75895;BME280;64573;50.328;15.014;2023-07-31T09:50:48;98643.97;;;22.72;56.19
75895;BME280;64573;50.328;15.014;2023-07-31T09:53:28;98638.34;;;23.09;54.72
75895;BME280;64573;50.328;15.014;2023-07-31T09:55:54;98641.66;;;23.06;54.69
75895;BME280;64573;50.328;15.014;2023-07-31T09:58:21;98638.59;;;22.25;55.49
75895;BME280;64573;50.328;15.014;2023-07-31T10:00:47;98635.53;;;22.11;57.18
75895;BME280;64573;50.328;15.014;2023-07-31T10:03:13;98636.88;;;21.12;58.75
75895;BME280;64573;50.328;15.014;2023-07-31T10:05:43;98640.66;;;20.84;64.07
75895;BME280;64573;50.328;15.014;2023-07-31T10:08:13;98614.59;;;20.67;65.41
75895;BME280;64573;50.328;15.014;2023-07-31T10:10:42;98623.28;;;21.17;62.67
75895;BME280;64573;50.328;15.014;2023-07-31T10:13:08;98619.19;;;21.15;61.87
75895;BME280;64573;50.328;15.014;2023-07-31T10:15:34;98613.88;;;20.76;60.80
75895;BME280;64573;50.328;15.014;2023-07-31T10:18:01;98619.34;;;21.30;61.88
75895;BME280;64573;50.328;15.014;2023-07-31T10:20:27;98613.09;;;21.67;60.53
75895;BME280;64573;50.328;15.014;2023-07-31T10:22:57;98614.97;;;21.61;62.22
75895;BME280;64573;50.328;15.014;2023-07-31T10:25:24;98606.59;;;21.41;59.80
75895;BME280;64573;50.328;15.014;2023-07-31T10:27:52;98607.16;;;21.43;61.11
75895;BME280;64573;50.328;15.014;2023-07-31T10:30:20;98602.88;;;21.89;59.55
75895;BME280;64573;50.328;15.014;2023-07-31T10:32:47;98593.66;;;22.06;57.93
75895;BME280;64573;50.328;15.014;2023-07-31T10:35:16;98598.53;;;21.98;58.27
75895;BME280;64573;50.328;15.014;2023-07-31T10:37:43;98593.84;;;22.36;58.14
75895;BME280;64573;50.328;15.014;2023-07-31T10:40:24;98594.50;;;22.06;59.09
75895;BME280;64573;50.328;15.014;2023-07-31T10:42:57;98587.69;;;22.09;57.33
75895;BME280;64573;50.328;15.014;2023-07-31T10:48:02;98579.50;;;22.76;56.17
75895;BME280;64573;50.328;15.014;2023-07-31T10:50:29;98585.06;;;23.32;54.58
75895;BME280;64573;50.328;15.014;2023-07-31T10:52:56;98571.75;;;22.48;55.41
75895;BME280;64573;50.328;15.014;2023-07-31T10:55:35;98582.56;;;23.82;54.90
75895;BME280;64573;50.328;15.014;2023-07-31T10:58:09;98565.56;;;23.90;51.10
75895;BME280;64573;50.328;15.014;2023-07-31T11:00:37;98552.66;;;24.06;51.32
75895;BME280;64573;50.328;15.014;2023-07-31T11:03:10;98544.97;;;24.03;50.91
75895;BME280;64573;50.328;15.014;2023-07-31T11:10:37;98543.75;;;24.44;50.31
75895;BME280;64573;50.328;15.014;2023-07-31T11:13:04;98550.66;;;25.20;47.92
75895;BME280;64573;50.328;15.014;2023-07-31T11:15:30;98546.25;;;25.24;47.48
75895;BME280;64573;50.328;15.014;2023-07-31T11:17:56;98551.66;;;24.90;49.26
75895;BME280;64573;50.328;15.014;2023-07-31T11:20:24;98545.50;;;24.69;47.96
75895;BME280;64573;50.328;15.014;2023-07-31T11:22:49;98538.84;;;24.41;49.99
75895;BME280;64573;50.328;15.014;2023-07-31T11:25:14;98538.84;;;25.20;49.26
75895;BME280;64573;50.328;15.014;2023-07-31T11:27:40;98533.84;;;25.27;49.37
75895;BME280;64573;50.328;15.014;2023-07-31T11:30:06;98538.47;;;24.97;47.28
75895;BME280;64573;50.328;15.014;2023-07-31T11:32:32;98529.66;;;25.93;48.28
75895;BME280;64573;50.328;15.014;2023-07-31T11:34:57;98526.81;;;25.79;47.16
75895;BME280;64573;50.328;15.014;2023-07-31T11:37:23;98524.91;;;25.45;46.58
75895;BME280;64573;50.328;15.014;2023-07-31T11:40:02;98506.19;;;24.45;48.22
75895;BME280;64573;50.328;15.014;2023-07-31T11:42:28;98514.66;;;24.93;48.47
75895;BME280;64573;50.328;15.014;2023-07-31T11:44:57;98513.56;;;25.57;47.24
75895;BME280;64573;50.328;15.014;2023-07-31T11:47:22;98501.09;;;26.36;46.03
75895;BME280;64573;50.328;15.014;2023-07-31T11:49:48;98510.97;;;25.95;45.03
75895;BME280;64573;50.328;15.014;2023-07-31T11:52:14;98510.34;;;25.79;44.86
75895;BME280;64573;50.328;15.014;2023-07-31T11:54:40;98521.13;;;25.94;45.20
75895;BME280;64573;50.328;15.014;2023-07-31T11:57:06;98509.34;;;25.65;46.31
75895;BME280;64573;50.328;15.014;2023-07-31T11:59:32;98505.53;;;25.37;46.36
75895;BME280;64573;50.328;15.014;2023-07-31T12:01:58;98506.75;;;24.86;48.97
75895;BME280;64573;50.328;15.014;2023-07-31T12:04:24;98502.31;;;24.90;47.67
75895;BME280;64573;50.328;15.014;2023-07-31T12:06:52;98506.56;;;25.12;49.89
75895;BME280;64573;50.328;15.014;2023-07-31T12:09:18;98498.66;;;25.34;47.33
75895;BME280;64573;50.328;15.014;2023-07-31T12:11:44;98501.94;;;25.07;48.71
75895;BME280;64573;50.328;15.014;2023-07-31T12:14:21;98506.53;;;24.28;48.93
75895;BME280;64573;50.328;15.014;2023-07-31T12:16:58;98488.03;;;24.00;51.05
75895;BME280;64573;50.328;15.014;2023-07-31T12:19:25;98491.94;;;24.43;51.55
75895;BME280;64573;50.328;15.014;2023-07-31T12:21:55;98478.78;;;25.18;46.18
75895;BME280;64573;50.328;15.014;2023-07-31T12:24:21;98467.06;;;24.73;47.19
75895;BME280;64573;50.328;15.014;2023-07-31T12:26:48;98478.81;;;25.13;47.87
75895;BME280;64573;50.328;15.014;2023-07-31T12:29:13;98473.75;;;25.54;46.94
75895;BME280;64573;50.328;15.014;2023-07-31T12:31:41;98475.28;;;25.66;47.69
75895;BME280;64573;50.328;15.014;2023-07-31T12:34:15;98467.47;;;24.91;45.33
75895;BME280;64573;50.328;15.014;2023-07-31T12:36:42;98463.94;;;25.19;45.39
75895;BME280;64573;50.328;15.014;2023-07-31T12:39:07;98456.44;;;24.96;45.46
75895;BME280;64573;50.328;15.014;2023-07-31T12:41:33;98455.00;;;25.62;44.15
75895;BME280;64573;50.328;15.014;2023-07-31T12:43:59;98449.97;;;25.93;42.19
75895;BME280;64573;50.328;15.014;2023-07-31T12:46:24;98444.16;;;25.75;43.09
75895;BME280;64573;50.328;15.014;2023-07-31T12:48:49;98444.47;;;25.21;42.39
75895;BME280;64573;50.328;15.014;2023-07-31T12:51:15;98462.13;;;25.10;45.27
75895;BME280;64573;50.328;15.014;2023-07-31T12:53:40;98437.66;;;25.13;43.96
75895;BME280;64573;50.328;15.014;2023-07-31T12:56:05;98448.69;;;25.37;43.21
75895;BME280;64573;50.328;15.014;2023-07-31T12:58:31;98438.38;;;25.77;43.00
75895;BME280;64573;50.328;15.014;2023-07-31T13:00:56;98435.25;;;26.07;42.24